createdAt,value
2023-05-16T00:00:04.568Z,15.61
2023-05-16T00:01:04.606Z,15.60
2023-05-16T00:02:04.712Z,15.60
2023-05-16T00:03:04.883Z,15.61
2023-05-16T00:04:04.845Z,15.63
2023-05-16T00:05:04.817Z,15.66
2023-05-16T00:06:04.928Z,15.66
2023-05-16T00:07:04.929Z,15.65
2023-05-16T00:08:04.955Z,15.64
2023-05-16T00:09:05.047Z,15.67
2023-05-16T00:10:05.087Z,15.70
2023-05-16T00:11:05.058Z,15.73
2023-05-16T00:12:05.066Z,15.73
2023-05-16T00:13:05.125Z,15.71
2023-05-16T00:14:05.125Z,15.66
2023-05-16T00:15:05.159Z,15.63
2023-05-16T00:16:05.234Z,15.60
2023-05-16T00:17:05.487Z,15.60
2023-05-16T00:18:05.693Z,15.60
2023-05-16T00:19:05.387Z,15.60
2023-05-16T00:20:05.377Z,15.61
2023-05-16T00:21:05.461Z,15.64
2023-05-16T00:22:05.466Z,15.69
2023-05-16T00:23:05.521Z,15.70
2023-05-16T00:24:05.588Z,15.67
2023-05-16T00:25:05.660Z,15.67
2023-05-16T00:26:05.694Z,15.68
2023-05-16T00:27:05.783Z,15.69
2023-05-16T00:28:05.817Z,15.67
2023-05-16T00:29:05.844Z,15.64
2023-05-16T00:30:05.935Z,15.64
2023-05-16T00:31:05.985Z,15.61
2023-05-16T00:32:06.095Z,15.61
2023-05-16T00:33:06.168Z,15.59
2023-05-16T00:34:06.180Z,15.60
2023-05-16T00:35:06.248Z,15.60
2023-05-16T00:36:06.285Z,15.63
2023-05-16T00:37:06.341Z,15.63
2023-05-16T00:38:06.405Z,15.60
2023-05-16T00:39:06.459Z,15.59
2023-05-16T00:40:06.547Z,15.62
2023-05-16T00:41:06.600Z,15.62
2023-05-16T00:42:06.623Z,15.62
2023-05-16T00:43:06.735Z,15.59
2023-05-16T00:44:06.750Z,15.59
2023-05-16T00:45:06.817Z,15.60
2023-05-16T00:46:06.904Z,15.58
2023-05-16T00:47:06.902Z,15.56
2023-05-16T00:48:07.044Z,15.56
2023-05-16T00:49:06.940Z,15.56
2023-05-16T00:50:06.955Z,15.55
2023-05-16T00:51:07.001Z,15.53
2023-05-16T00:52:07.020Z,15.55
2023-05-16T00:53:07.049Z,15.58
2023-05-16T00:54:07.068Z,15.55
2023-05-16T00:55:07.137Z,15.53
2023-05-16T00:56:07.147Z,15.54
2023-05-16T00:57:07.160Z,15.56
2023-05-16T00:58:07.276Z,15.53
2023-05-16T00:59:07.198Z,15.51
2023-05-16T01:00:07.218Z,15.52
2023-05-16T01:01:07.323Z,15.54
2023-05-16T01:02:07.362Z,15.52
2023-05-16T01:03:07.533Z,15.52
2023-05-16T01:04:07.545Z,15.50
2023-05-16T01:05:07.499Z,15.51
2023-05-16T01:06:07.580Z,15.52
2023-05-16T01:07:07.623Z,15.53
2023-05-16T01:08:07.732Z,15.55
2023-05-16T01:09:07.803Z,15.53
2023-05-16T01:10:07.843Z,15.50
2023-05-16T01:11:07.854Z,15.49
2023-05-16T01:12:07.916Z,15.49
2023-05-16T01:13:07.942Z,15.46
2023-05-16T01:14:07.982Z,15.45
2023-05-16T01:15:08.017Z,15.46
2023-05-16T01:16:08.114Z,15.43
2023-05-16T01:17:08.052Z,15.42
2023-05-16T01:18:08.161Z,15.40
2023-05-16T01:19:08.247Z,15.39
2023-05-16T01:20:08.133Z,15.42
2023-05-16T01:21:08.119Z,15.41
2023-05-16T01:22:08.144Z,15.43
2023-05-16T01:23:08.201Z,15.43
2023-05-16T01:24:08.231Z,15.39
2023-05-16T01:25:08.256Z,15.40
2023-05-16T01:26:08.263Z,15.39
2023-05-16T01:27:08.315Z,15.38
2023-05-16T01:28:08.319Z,15.36
2023-05-16T01:29:08.380Z,15.32
2023-05-16T01:30:08.396Z,15.34
2023-05-16T01:31:08.457Z,15.33
2023-05-16T01:32:08.499Z,15.35
2023-05-16T01:33:08.615Z,15.37
2023-05-16T01:34:08.508Z,15.35
2023-05-16T01:35:08.562Z,15.31
2023-05-16T01:36:08.638Z,15.32
2023-05-16T01:37:08.641Z,15.35
2023-05-16T01:38:08.733Z,15.32
2023-05-16T01:39:08.710Z,15.35
2023-05-16T01:40:08.766Z,15.38
2023-05-16T01:41:08.762Z,15.41
2023-05-16T01:42:08.849Z,15.43
2023-05-16T01:43:08.878Z,15.45
2023-05-16T01:44:08.909Z,15.42
2023-05-16T01:45:08.947Z,15.42
2023-05-16T01:46:08.972Z,15.41
2023-05-16T01:47:09.129Z,15.42
2023-05-16T01:48:09.157Z,15.40
2023-05-16T01:49:09.046Z,15.36
2023-05-16T01:50:09.081Z,15.36
2023-05-16T01:51:09.104Z,15.36
2023-05-16T01:52:09.137Z,15.37
2023-05-16T01:53:09.220Z,15.37
2023-05-16T01:54:09.277Z,15.38
2023-05-16T01:55:09.308Z,15.38
2023-05-16T01:56:09.332Z,15.38
2023-05-16T01:57:09.382Z,15.37
2023-05-16T01:58:09.464Z,15.38
2023-05-16T01:59:09.499Z,15.32
2023-05-16T02:00:09.570Z,15.27
2023-05-16T02:01:09.623Z,15.30
2023-05-16T02:02:09.587Z,15.31
2023-05-16T02:03:09.779Z,15.30
2023-05-16T02:04:09.706Z,15.27
2023-05-16T02:05:09.703Z,15.30
2023-05-16T02:06:09.737Z,15.31
2023-05-16T02:07:09.821Z,15.29
2023-05-16T02:08:09.824Z,15.28
2023-05-16T02:09:09.817Z,15.30
2023-05-16T02:10:09.835Z,15.34
2023-05-16T02:11:09.832Z,15.35
2023-05-16T02:12:09.829Z,15.37
2023-05-16T02:13:09.867Z,15.37
2023-05-16T02:14:09.809Z,15.36
2023-05-16T02:15:09.841Z,15.37
2023-05-16T02:16:09.842Z,15.39
2023-05-16T02:17:09.922Z,15.41
2023-05-16T02:18:10.019Z,15.42
2023-05-16T02:19:09.930Z,15.44
2023-05-16T02:20:09.951Z,15.40
2023-05-16T02:21:09.974Z,15.38
2023-05-16T02:22:09.972Z,15.34
2023-05-16T02:23:09.997Z,15.35
2023-05-16T02:24:09.976Z,15.37
2023-05-16T02:25:10.009Z,15.37
2023-05-16T02:26:09.989Z,15.37
2023-05-16T02:27:10.032Z,15.36
2023-05-16T02:28:10.033Z,15.35
2023-05-16T02:29:10.025Z,15.34
2023-05-16T02:30:10.007Z,15.34
2023-05-16T02:31:10.040Z,15.35
2023-05-16T02:32:10.003Z,15.35
2023-05-16T02:33:10.109Z,15.33
2023-05-16T02:34:10.010Z,15.31
2023-05-16T02:35:10.015Z,15.30
2023-05-16T02:36:09.995Z,15.29
2023-05-16T02:37:12.507Z,15.27
2023-05-16T02:38:09.992Z,15.25
2023-05-16T02:39:09.997Z,15.25
2023-05-16T02:40:09.961Z,15.26
2023-05-16T02:41:09.947Z,15.25
2023-05-16T02:42:09.978Z,15.25
2023-05-16T02:43:09.918Z,15.26
2023-05-16T02:44:09.923Z,15.24
2023-05-16T02:45:09.929Z,15.28
2023-05-16T02:46:09.991Z,15.29
2023-05-16T02:47:09.899Z,15.28
2023-05-16T02:48:10.000Z,15.29
2023-05-16T02:49:09.895Z,15.26
2023-05-16T02:50:09.904Z,15.28
2023-05-16T02:51:09.914Z,15.25
2023-05-16T02:52:09.888Z,15.25
2023-05-16T02:53:09.886Z,15.23
2023-05-16T02:54:09.851Z,15.24
2023-05-16T02:55:21.859Z,15.25
2023-05-16T02:56:10.861Z,15.22
2023-05-16T02:57:09.849Z,15.22
2023-05-16T02:58:09.876Z,15.26
2023-05-16T02:59:09.826Z,15.30
2023-05-16T03:00:09.833Z,15.31
2023-05-16T03:01:09.871Z,15.31
2023-05-16T03:02:09.822Z,15.31
2023-05-16T03:03:09.901Z,15.29
2023-05-16T03:04:09.858Z,15.29
2023-05-16T03:05:09.764Z,15.29
2023-05-16T03:06:09.780Z,15.27
2023-05-16T03:07:10.530Z,15.27
2023-05-16T03:08:09.791Z,15.27
2023-05-16T03:09:09.829Z,15.27
2023-05-16T03:10:09.898Z,15.30
2023-05-16T03:11:09.911Z,15.34
2023-05-16T03:12:09.955Z,15.33
2023-05-16T03:13:09.989Z,15.34
2023-05-16T03:14:10.043Z,15.31
2023-05-16T03:15:10.046Z,15.31
2023-05-16T03:16:10.112Z,15.34
2023-05-16T03:17:10.098Z,15.36
2023-05-16T03:18:10.155Z,15.38
2023-05-16T03:19:10.320Z,15.37
2023-05-16T03:20:10.176Z,15.36
2023-05-16T03:21:10.236Z,15.35
2023-05-16T03:22:10.260Z,15.35
2023-05-16T03:23:10.284Z,15.38
2023-05-16T03:24:10.364Z,15.36
2023-05-16T03:25:10.376Z,15.33
2023-05-16T03:26:10.417Z,15.33
2023-05-16T03:27:10.469Z,15.32
2023-05-16T03:28:10.733Z,15.31
2023-05-16T03:29:10.547Z,15.30
2023-05-16T03:30:10.552Z,15.30
2023-05-16T03:31:10.600Z,15.30
2023-05-16T03:32:10.606Z,15.22
2023-05-16T03:33:10.697Z,15.24
2023-05-16T03:34:10.682Z,15.23
2023-05-16T03:35:10.704Z,15.23
2023-05-16T03:36:10.693Z,15.25
2023-05-16T03:37:10.692Z,15.24
2023-05-16T03:38:10.687Z,15.22
2023-05-16T03:39:10.700Z,15.24
2023-05-16T03:40:10.746Z,15.26
2023-05-16T03:41:10.715Z,15.25
2023-05-16T03:42:10.710Z,15.26
2023-05-16T03:43:10.730Z,15.27
2023-05-16T03:44:10.775Z,15.30
2023-05-16T03:45:10.713Z,15.29
2023-05-16T03:46:10.725Z,15.26
2023-05-16T03:47:10.693Z,15.25
2023-05-16T03:48:10.836Z,15.25
2023-05-16T03:49:10.702Z,15.28
2023-05-16T03:50:10.691Z,15.29
2023-05-16T03:51:10.723Z,15.26
2023-05-16T03:52:10.703Z,15.28
2023-05-16T03:53:10.762Z,15.28
2023-05-16T03:54:10.777Z,15.25
2023-05-16T03:55:10.766Z,15.28
2023-05-16T03:56:10.779Z,15.29
2023-05-16T03:57:10.833Z,15.29
2023-05-16T03:58:10.866Z,15.28
2023-05-16T03:59:10.888Z,15.30
2023-05-16T04:00:10.966Z,15.30
2023-05-16T04:01:10.957Z,15.30
2023-05-16T04:02:11.014Z,15.30
2023-05-16T04:03:11.075Z,15.29
2023-05-16T04:04:11.041Z,15.28
2023-05-16T04:05:11.081Z,15.26
2023-05-16T04:06:11.162Z,15.28
2023-05-16T04:07:11.067Z,15.29
2023-05-16T04:08:11.093Z,15.31
2023-05-16T04:09:11.084Z,15.32
2023-05-16T04:10:11.110Z,15.29
2023-05-16T04:11:11.088Z,15.27
2023-05-16T04:12:11.065Z,15.27
2023-05-16T04:13:11.125Z,15.28
2023-05-16T04:14:11.160Z,15.29
2023-05-16T04:15:11.102Z,15.31
2023-05-16T04:16:11.172Z,15.31
2023-05-16T04:17:11.340Z,15.33
2023-05-16T04:18:11.174Z,15.30
2023-05-16T04:19:11.139Z,15.21
2023-05-16T04:20:11.140Z,15.20
2023-05-16T04:21:11.112Z,15.17
2023-05-16T04:22:11.116Z,15.19
2023-05-16T04:23:11.124Z,15.17
2023-05-16T04:24:11.100Z,15.20
2023-05-16T04:25:11.139Z,15.22
2023-05-16T04:26:11.108Z,15.23
2023-05-16T04:27:11.138Z,15.22
2023-05-16T04:28:11.135Z,15.26
2023-05-16T04:29:11.113Z,15.29
2023-05-16T04:30:11.130Z,15.30
2023-05-16T04:31:11.139Z,15.29
2023-05-16T04:32:11.124Z,15.32
2023-05-16T04:33:11.192Z,15.30
2023-05-16T04:34:11.151Z,15.34
2023-05-16T04:35:11.185Z,15.38
2023-05-16T04:36:11.130Z,15.36
2023-05-16T04:37:11.173Z,15.36
2023-05-16T04:38:11.172Z,15.37
2023-05-16T04:39:11.169Z,15.36
2023-05-16T04:40:11.206Z,15.35
2023-05-16T04:41:11.163Z,15.36
2023-05-16T04:42:11.180Z,15.36
2023-05-16T04:43:11.158Z,15.37
2023-05-16T04:44:11.177Z,15.38
2023-05-16T04:45:11.196Z,15.39
2023-05-16T04:46:11.331Z,15.40
2023-05-16T04:47:11.178Z,15.41
2023-05-16T04:48:11.241Z,15.38
2023-05-16T04:49:11.209Z,15.35
2023-05-16T04:50:11.213Z,15.35
2023-05-16T04:51:11.173Z,15.35
2023-05-16T04:52:11.171Z,15.37
2023-05-16T04:53:11.164Z,15.40
2023-05-16T04:54:11.258Z,15.42
2023-05-16T04:55:11.193Z,15.42
2023-05-16T04:56:11.214Z,15.40
2023-05-16T04:57:11.253Z,15.39
2023-05-16T04:58:12.332Z,15.38
2023-05-16T04:59:11.302Z,15.36
2023-05-16T05:00:11.253Z,15.40
2023-05-16T05:02:38.943Z,15.33
2023-05-16T05:03:31.217Z,15.36
2023-05-16T05:04:31.234Z,15.39
2023-05-16T05:05:31.480Z,15.45
2023-05-16T05:06:31.154Z,15.49
2023-05-16T05:07:31.193Z,15.39
2023-05-16T05:08:31.161Z,15.31
2023-05-16T05:09:31.153Z,15.31
2023-05-16T05:10:31.155Z,15.32
2023-05-16T05:11:31.110Z,15.36
2023-05-16T05:12:31.132Z,15.39
2023-05-16T05:13:31.131Z,15.40
2023-05-16T05:14:31.152Z,15.41
2023-05-16T05:15:31.164Z,15.44
2023-05-16T05:16:31.114Z,15.46
2023-05-16T05:17:31.232Z,15.49
2023-05-16T05:18:31.126Z,15.46
2023-05-16T05:19:31.181Z,15.47
2023-05-16T05:20:31.081Z,15.46
2023-05-16T05:21:31.141Z,15.44
2023-05-16T05:22:31.155Z,15.44
2023-05-16T05:23:31.142Z,15.44
2023-05-16T05:24:31.192Z,15.45
2023-05-16T05:25:31.213Z,15.44
2023-05-16T05:26:31.221Z,15.40
2023-05-16T05:27:31.285Z,15.42
2023-05-16T05:28:31.283Z,15.43
2023-05-16T05:29:31.388Z,15.47
2023-05-16T05:30:31.335Z,15.46
2023-05-16T05:31:31.332Z,15.45
2023-05-16T05:32:31.632Z,15.38
2023-05-16T05:33:31.449Z,15.32
2023-05-16T05:34:31.941Z,15.26
2023-05-16T05:35:31.523Z,15.22
2023-05-16T05:36:31.558Z,15.15
2023-05-16T05:37:31.562Z,15.11
2023-05-16T05:38:31.581Z,15.04
2023-05-16T05:39:31.920Z,15.04
2023-05-16T05:40:31.582Z,15.06
2023-05-16T05:41:31.720Z,15.08
2023-05-16T05:42:31.596Z,15.10
2023-05-16T05:43:31.589Z,15.14
2023-05-16T05:44:31.954Z,15.10
2023-05-16T05:45:31.689Z,15.10
2023-05-16T05:46:38.783Z,15.10
2023-05-16T05:47:31.663Z,15.12
2023-05-16T05:48:31.699Z,15.15
2023-05-16T05:49:32.002Z,15.06
2023-05-16T05:50:31.677Z,15.03
2023-05-16T05:51:31.625Z,14.98
2023-05-16T05:52:31.663Z,15.01
2023-05-16T05:53:31.573Z,15.09
2023-05-16T05:54:32.000Z,15.15
2023-05-16T05:55:39.175Z,15.19
2023-05-16T05:56:31.529Z,15.22
2023-05-16T05:57:31.560Z,15.25
2023-05-16T05:58:31.572Z,15.28
2023-05-16T05:59:32.020Z,15.33
2023-05-16T06:00:31.615Z,15.32
2023-05-16T06:01:31.577Z,15.27
2023-05-16T06:02:31.738Z,15.26
2023-05-16T06:03:31.713Z,15.26
2023-05-16T06:04:31.591Z,15.26
2023-05-16T06:05:31.705Z,15.26
2023-05-16T06:06:32.362Z,15.28
2023-05-16T06:07:31.580Z,15.27
2023-05-16T06:08:31.545Z,15.28
2023-05-16T06:09:31.581Z,15.27
2023-05-16T06:10:31.488Z,15.27
2023-05-16T06:11:31.967Z,15.20
2023-05-16T06:12:31.505Z,15.18
2023-05-16T06:13:32.494Z,15.18
2023-05-16T06:14:31.516Z,15.14
2023-05-16T06:15:31.501Z,15.08
2023-05-16T06:16:31.544Z,15.12
2023-05-16T06:17:31.557Z,15.16
2023-05-16T06:18:31.462Z,15.18
2023-05-16T06:19:31.441Z,15.18
2023-05-16T06:20:31.431Z,15.16
2023-05-16T06:21:31.406Z,15.19
2023-05-16T06:22:31.370Z,15.18
2023-05-16T06:23:31.391Z,15.20
2023-05-16T06:24:31.374Z,15.22
2023-05-16T06:25:31.393Z,15.25
2023-05-16T06:26:31.392Z,15.24
2023-05-16T06:27:31.385Z,15.23
2023-05-16T06:28:31.400Z,15.20
2023-05-16T06:29:31.312Z,15.17
2023-05-16T06:30:31.416Z,15.20
2023-05-16T06:31:31.379Z,15.18
2023-05-16T06:32:31.469Z,15.19
2023-05-16T06:33:31.333Z,15.20
2023-05-16T06:34:31.331Z,15.16
2023-05-16T06:35:31.358Z,15.17
2023-05-16T06:36:31.402Z,15.20
2023-05-16T06:37:31.258Z,15.22
2023-05-16T06:38:31.273Z,15.19
2023-05-16T06:39:31.296Z,15.19
2023-05-16T06:40:31.376Z,15.16
2023-05-16T06:41:31.316Z,15.20
2023-05-16T06:42:31.303Z,15.23
2023-05-16T06:43:31.305Z,15.27
2023-05-16T06:44:31.266Z,15.26
2023-05-16T06:45:31.535Z,15.26
2023-05-16T06:46:31.309Z,15.26
2023-05-16T06:47:31.442Z,15.22
2023-05-16T06:48:31.325Z,15.22
2023-05-16T06:49:31.342Z,15.16
2023-05-16T06:50:31.411Z,15.14
2023-05-16T06:51:31.316Z,15.13
2023-05-16T06:52:31.317Z,15.13
2023-05-16T06:53:31.317Z,15.15
2023-05-16T06:54:31.374Z,15.17
2023-05-16T06:55:31.336Z,15.17
2023-05-16T06:56:31.405Z,15.19
2023-05-16T06:57:31.347Z,15.19
2023-05-16T06:58:31.300Z,15.20
2023-05-16T06:59:31.347Z,15.23
2023-05-16T07:00:32.861Z,15.25
2023-05-16T07:01:31.415Z,15.28
2023-05-16T07:02:31.507Z,15.26
2023-05-16T07:03:31.475Z,15.26
2023-05-16T07:04:31.345Z,15.26
2023-05-16T07:05:31.410Z,15.20
2023-05-16T07:06:31.360Z,15.19
2023-05-16T07:07:31.369Z,15.22
2023-05-16T07:08:31.407Z,15.25
2023-05-16T07:09:31.450Z,15.27
2023-05-16T07:10:31.385Z,15.27
2023-05-16T07:11:31.341Z,15.30
2023-05-16T07:12:31.382Z,15.33
2023-05-16T07:13:31.676Z,15.32
2023-05-16T07:14:31.365Z,15.37
2023-05-16T07:15:31.574Z,15.39
2023-05-16T07:16:31.504Z,15.40
2023-05-16T07:17:31.456Z,15.37
2023-05-16T07:18:31.508Z,15.35
2023-05-16T07:19:31.417Z,15.37
2023-05-16T07:20:31.556Z,15.40
2023-05-16T07:21:31.485Z,15.43
2023-05-16T07:22:31.503Z,15.45
2023-05-16T07:23:31.485Z,15.46
2023-05-16T07:24:31.485Z,15.48
2023-05-16T07:25:32.095Z,15.49
2023-05-16T07:26:31.543Z,15.52
2023-05-16T07:27:31.711Z,15.53
2023-05-16T07:28:31.567Z,15.55
2023-05-16T07:29:31.637Z,15.58
2023-05-16T07:30:33.082Z,15.58
2023-05-16T07:31:31.752Z,15.54
2023-05-16T07:32:31.676Z,15.53
2023-05-16T07:33:31.793Z,15.53
2023-05-16T07:34:31.788Z,15.51
2023-05-16T07:35:32.118Z,15.50
2023-05-16T07:36:31.793Z,15.46
2023-05-16T07:37:31.779Z,15.50
2023-05-16T07:38:31.832Z,15.52
2023-05-16T07:39:31.833Z,15.51
2023-05-16T07:40:32.021Z,15.51
2023-05-16T07:41:31.932Z,15.47
2023-05-16T07:42:32.884Z,15.45
2023-05-16T07:43:31.928Z,15.45
2023-05-16T07:44:31.940Z,15.46
2023-05-16T07:45:32.082Z,15.46
2023-05-16T07:46:31.994Z,15.45
2023-05-16T07:47:31.966Z,15.46
2023-05-16T07:48:31.976Z,15.48
2023-05-16T07:49:31.996Z,15.49
2023-05-16T07:50:31.984Z,15.51
2023-05-16T07:51:31.990Z,15.50
2023-05-16T07:52:32.125Z,15.49
2023-05-16T07:53:32.116Z,15.51
2023-05-16T07:54:32.037Z,15.50
2023-05-16T07:55:32.050Z,15.51
2023-05-16T07:56:32.122Z,15.50
2023-05-16T07:57:32.144Z,15.48
2023-05-16T07:58:32.140Z,15.46
2023-05-16T07:59:32.257Z,15.44
2023-05-16T08:00:32.169Z,15.49
2023-05-16T08:01:32.239Z,15.49
2023-05-16T08:02:32.491Z,15.53
2023-05-16T08:03:32.332Z,15.55
2023-05-16T08:04:32.297Z,15.57
2023-05-16T08:05:32.320Z,15.59
2023-05-16T08:06:32.302Z,15.62
2023-05-16T08:07:32.330Z,15.65
2023-05-16T08:08:32.402Z,15.64
2023-05-16T08:09:32.413Z,15.63
2023-05-16T08:10:32.540Z,15.63
2023-05-16T08:11:32.395Z,15.66
2023-05-16T08:12:33.389Z,15.65
2023-05-16T08:13:32.642Z,15.67
2023-05-16T08:14:32.552Z,15.52
2023-05-16T08:15:33.321Z,15.52
2023-05-16T08:16:32.669Z,15.53
2023-05-16T08:17:32.805Z,15.57
2023-05-16T08:18:32.813Z,15.62
2023-05-16T08:19:32.939Z,15.57
2023-05-16T08:20:34.027Z,15.57
2023-05-16T08:21:33.007Z,15.56
2023-05-16T08:22:33.026Z,15.59
2023-05-16T08:23:33.144Z,15.60
2023-05-16T08:24:33.141Z,15.64
2023-05-16T08:25:33.140Z,15.66
2023-05-16T08:26:33.092Z,15.65
2023-05-16T08:27:33.119Z,15.68
2023-05-16T08:28:33.179Z,15.68
2023-05-16T08:29:33.173Z,15.67
2023-05-16T08:30:33.290Z,15.70
2023-05-16T08:31:33.367Z,15.73
2023-05-16T08:32:33.396Z,15.75
2023-05-16T08:33:33.411Z,15.77
2023-05-16T08:34:33.679Z,15.80
2023-05-16T08:35:33.535Z,15.82
2023-05-16T08:36:33.528Z,15.82
2023-05-16T08:37:33.674Z,15.85
2023-05-16T08:38:33.676Z,15.87
2023-05-16T08:39:33.781Z,15.89
2023-05-16T08:40:34.071Z,15.90
2023-05-16T08:41:33.880Z,15.91
2023-05-16T08:42:33.789Z,15.90
2023-05-16T08:43:33.888Z,15.92
2023-05-16T08:44:34.906Z,15.94
2023-05-16T08:45:34.002Z,15.95
2023-05-16T08:46:34.084Z,15.95
2023-05-16T08:47:34.022Z,15.99
2023-05-16T08:48:34.006Z,16.00
2023-05-16T08:49:34.055Z,16.02
2023-05-16T08:50:34.134Z,16.08
2023-05-16T08:51:34.142Z,15.97
2023-05-16T08:52:34.147Z,16.03
2023-05-16T08:53:34.190Z,16.01
2023-05-16T08:54:34.294Z,16.02
2023-05-16T08:55:34.315Z,16.06
2023-05-16T08:56:34.443Z,16.03
2023-05-16T08:57:34.360Z,16.06
2023-05-16T08:58:34.500Z,16.03
2023-05-16T08:59:34.406Z,16.00
2023-05-16T09:00:34.350Z,16.07
2023-05-16T09:01:34.816Z,16.15
2023-05-16T09:02:34.452Z,16.18
2023-05-16T09:03:34.462Z,16.21
2023-05-16T09:04:34.640Z,16.27
2023-05-16T09:05:34.447Z,16.29
2023-05-16T09:06:34.511Z,16.31
2023-05-16T09:07:34.482Z,16.32
2023-05-16T09:08:34.460Z,16.30
2023-05-16T09:09:34.406Z,16.33
2023-05-16T09:10:34.517Z,16.36
2023-05-16T09:11:36.159Z,16.35
2023-05-16T09:12:34.669Z,16.35
2023-05-16T09:13:34.836Z,16.38
2023-05-16T09:14:34.747Z,16.39
2023-05-16T09:15:34.822Z,16.41
2023-05-16T09:16:35.172Z,16.38
2023-05-16T09:17:39.847Z,16.39
2023-05-16T09:18:36.060Z,16.35
2023-05-16T09:19:34.933Z,16.35
2023-05-16T09:20:34.966Z,16.33
2023-05-16T09:21:35.103Z,16.30
2023-05-16T09:22:34.915Z,16.32
2023-05-16T09:23:36.907Z,16.34
2023-05-16T09:24:34.910Z,16.31
2023-05-16T09:25:35.221Z,16.32
2023-05-16T09:26:35.052Z,16.34
2023-05-16T09:27:34.942Z,16.33
2023-05-16T09:28:35.014Z,16.33
2023-05-16T09:29:36.834Z,16.32
2023-05-16T09:30:35.232Z,16.28
2023-05-16T09:31:35.039Z,16.28
2023-05-16T09:32:34.975Z,16.29
2023-05-16T09:33:35.080Z,16.28
2023-05-16T09:34:35.026Z,16.28
2023-05-16T09:35:44.658Z,16.30
2023-05-16T09:36:36.106Z,16.31
2023-05-16T09:37:35.078Z,16.30
2023-05-16T09:38:34.996Z,16.26
2023-05-16T09:39:35.011Z,16.28
2023-05-16T09:40:35.014Z,16.29
2023-05-16T09:41:35.129Z,16.24
2023-05-16T09:42:35.045Z,16.24
2023-05-16T09:43:36.546Z,16.27
2023-05-16T09:44:35.150Z,16.29
2023-05-16T09:45:35.225Z,16.32
2023-05-16T09:46:35.731Z,16.33
2023-05-16T09:47:35.216Z,16.33
2023-05-16T09:48:35.178Z,16.34
2023-05-16T09:49:35.277Z,16.37
2023-05-16T09:50:35.332Z,16.37
2023-05-16T09:51:35.253Z,16.36
2023-05-16T09:52:35.259Z,16.34
2023-05-16T09:53:35.229Z,16.35
2023-05-16T09:54:35.332Z,16.31
2023-05-16T09:55:35.316Z,16.29
2023-05-16T09:56:35.420Z,16.30
2023-05-16T09:57:35.363Z,16.30
2023-05-16T09:58:35.348Z,16.28
2023-05-16T09:59:35.438Z,16.28
2023-05-16T10:00:35.416Z,16.29
2023-05-16T10:01:35.536Z,16.31
2023-05-16T10:02:35.508Z,16.29
2023-05-16T10:03:35.656Z,16.30
2023-05-16T10:04:35.551Z,16.28
2023-05-16T10:05:35.567Z,16.28
2023-05-16T10:06:35.665Z,16.27
2023-05-16T10:07:35.510Z,16.24
2023-05-16T10:08:35.603Z,16.20
2023-05-16T10:09:35.602Z,16.19
2023-05-16T10:10:35.744Z,16.16
2023-05-16T10:11:35.824Z,16.14
2023-05-16T10:12:36.546Z,16.15
2023-05-16T10:13:35.777Z,16.14
2023-05-16T10:14:35.718Z,16.15
2023-05-16T10:15:35.783Z,16.21
2023-05-16T10:16:36.000Z,16.23
2023-05-16T10:17:35.885Z,16.20
2023-05-16T10:18:36.596Z,16.18
2023-05-16T10:19:35.966Z,16.18
2023-05-16T10:20:35.992Z,16.18
2023-05-16T10:21:36.078Z,16.19
2023-05-16T10:22:36.072Z,16.19
2023-05-16T10:23:36.136Z,16.18
2023-05-16T10:24:36.132Z,16.20
2023-05-16T10:25:36.172Z,16.22
2023-05-16T10:26:36.570Z,16.24
2023-05-16T10:27:36.268Z,16.25
2023-05-16T10:28:36.283Z,16.25
2023-05-16T10:29:46.582Z,16.26
2023-05-16T10:30:37.358Z,16.25
2023-05-16T10:31:36.750Z,16.27
2023-05-16T10:32:36.408Z,16.27
2023-05-16T10:33:36.373Z,16.27
2023-05-16T10:34:36.302Z,16.22
2023-05-16T10:35:36.309Z,16.17
2023-05-16T10:36:36.687Z,16.17
2023-05-16T10:37:36.338Z,16.17
2023-05-16T10:38:36.289Z,16.18
2023-05-16T10:39:36.303Z,16.19
2023-05-16T10:40:36.347Z,16.19
2023-05-16T10:41:36.624Z,16.17
2023-05-16T10:42:36.308Z,16.16
2023-05-16T10:43:36.549Z,16.18
2023-05-16T10:44:36.391Z,16.17
2023-05-16T10:45:36.493Z,16.17
2023-05-16T10:46:36.733Z,16.15
2023-05-16T10:47:36.582Z,16.13
2023-05-16T10:48:36.567Z,16.14
2023-05-16T10:49:36.576Z,16.15
2023-05-16T10:50:36.675Z,16.14
2023-05-16T10:51:38.105Z,16.16
2023-05-16T10:52:36.677Z,16.18
2023-05-16T10:53:37.470Z,16.20
2023-05-16T10:54:36.711Z,16.17
2023-05-16T10:55:36.766Z,16.17
2023-05-16T10:56:36.810Z,16.19
2023-05-16T10:57:36.827Z,16.17
2023-05-16T10:58:36.898Z,16.11
2023-05-16T10:59:36.851Z,16.10
2023-05-16T11:00:36.951Z,16.11
2023-05-16T11:01:37.020Z,16.14
2023-05-16T11:02:37.135Z,16.20
2023-05-16T11:03:37.064Z,16.19
2023-05-16T11:04:37.084Z,16.19
2023-05-16T11:05:37.088Z,16.22
2023-05-16T11:06:37.148Z,16.22
2023-05-16T11:07:37.099Z,16.19
2023-05-16T11:08:37.171Z,16.14
2023-05-16T11:09:37.223Z,16.10
2023-05-16T11:10:37.292Z,16.02
2023-05-16T11:11:37.324Z,15.91
2023-05-16T11:12:37.338Z,15.92
2023-05-16T11:13:37.410Z,15.94
2023-05-16T11:14:37.551Z,15.97
2023-05-16T11:15:37.504Z,15.91
2023-05-16T11:16:37.521Z,15.78
2023-05-16T11:17:48.137Z,15.80
2023-05-16T11:18:37.508Z,15.81
2023-05-16T11:19:37.482Z,15.88
2023-05-16T11:20:37.457Z,15.93
2023-05-16T11:21:37.603Z,15.79
2023-05-16T11:22:37.408Z,15.82
2023-05-16T11:23:37.474Z,15.84
2023-05-16T11:24:37.415Z,15.91
2023-05-16T11:25:37.570Z,15.98
2023-05-16T11:26:37.481Z,16.05
2023-05-16T11:27:37.458Z,16.13
2023-05-16T11:28:37.448Z,16.17
2023-05-16T11:29:37.430Z,16.20
2023-05-16T11:30:37.426Z,16.19
2023-05-16T11:31:38.025Z,16.21
2023-05-16T11:32:37.844Z,16.23
2023-05-16T11:33:37.381Z,16.26
2023-05-16T11:34:37.347Z,16.32
2023-05-16T11:35:37.407Z,16.38
2023-05-16T11:36:38.088Z,16.44
2023-05-16T11:37:37.621Z,16.45
2023-05-16T11:38:37.495Z,16.46
2023-05-16T11:39:37.576Z,16.44
2023-05-16T11:40:37.545Z,16.46
2023-05-16T11:41:37.652Z,16.48
2023-05-16T11:42:37.661Z,16.47
2023-05-16T11:43:38.234Z,16.47
2023-05-16T11:44:37.686Z,16.46
2023-05-16T11:45:37.660Z,16.47
2023-05-16T11:46:37.816Z,16.51
2023-05-16T11:47:37.735Z,16.53
2023-05-16T11:48:37.796Z,16.52
2023-05-16T11:49:37.759Z,16.54
2023-05-16T11:50:37.685Z,16.56
2023-05-16T11:51:37.719Z,16.58
2023-05-16T11:52:37.722Z,16.58
2023-05-16T11:53:37.741Z,16.52
2023-05-16T11:54:37.755Z,16.53
2023-05-16T11:55:41.684Z,16.53
2023-05-16T11:56:37.740Z,16.51
2023-05-16T11:57:37.844Z,16.50
2023-05-16T11:58:37.748Z,16.50
2023-05-16T11:59:37.885Z,16.49
2023-05-16T12:00:37.766Z,16.46
2023-05-16T12:01:37.802Z,16.43
2023-05-16T12:02:37.928Z,16.42
2023-05-16T12:03:38.790Z,16.47
2023-05-16T12:04:38.290Z,16.44
2023-05-16T12:05:38.129Z,16.45
2023-05-16T12:06:45.391Z,16.48
2023-05-16T12:07:37.710Z,16.49
2023-05-16T12:08:37.687Z,16.51
2023-05-16T12:09:37.726Z,16.54
2023-05-16T12:10:37.643Z,16.55
2023-05-16T12:11:37.644Z,16.56
2023-05-16T12:12:37.696Z,16.54
2023-05-16T12:13:37.656Z,16.51
2023-05-16T12:14:37.732Z,16.48
2023-05-16T12:15:37.661Z,16.45
2023-05-16T12:16:37.731Z,16.35
2023-05-16T12:17:37.801Z,16.37
2023-05-16T12:18:37.636Z,16.40
2023-05-16T12:19:37.598Z,16.41
2023-05-16T12:20:37.607Z,16.28
2023-05-16T12:21:37.612Z,16.28
2023-05-16T12:22:37.631Z,16.30
2023-05-16T12:23:37.555Z,16.33
2023-05-16T12:24:37.725Z,16.34
2023-05-16T12:25:37.660Z,16.18
2023-05-16T12:26:37.537Z,16.12
2023-05-16T12:27:39.374Z,16.19
2023-05-16T12:28:37.650Z,16.20
2023-05-16T12:29:37.550Z,16.19
2023-05-16T12:30:37.541Z,16.12
2023-05-16T12:31:37.587Z,16.16
2023-05-16T12:32:37.660Z,16.24
2023-05-16T12:33:37.622Z,16.28
2023-05-16T12:34:37.562Z,16.25
2023-05-16T12:35:37.513Z,16.27
2023-05-16T12:36:37.517Z,16.29
2023-05-16T12:37:37.519Z,16.31
2023-05-16T12:38:37.518Z,16.33
2023-05-16T12:39:37.450Z,16.33
2023-05-16T12:40:37.472Z,16.30
2023-05-16T12:41:37.443Z,16.31
2023-05-16T12:42:37.455Z,16.33
2023-05-16T12:43:37.424Z,16.29
2023-05-16T12:44:37.452Z,16.18
2023-05-16T12:45:37.404Z,16.20
2023-05-16T12:46:37.508Z,16.25
2023-05-16T12:47:37.439Z,16.28
2023-05-16T12:48:37.396Z,16.27
2023-05-16T12:49:37.397Z,16.27
2023-05-16T12:50:37.436Z,16.28
2023-05-16T12:51:37.410Z,16.29
2023-05-16T12:52:38.010Z,16.32
2023-05-16T12:53:37.412Z,16.27